sensor_id;sensor_type;location;lat;lon;timestamp;P1;durP1;ratioP1;P2;durP2;ratioP2
75616;SDS011;64200;55.426;37.758;2023-01-19T00:00:52;14.45;;;6.13;;
75616;SDS011;64200;55.426;37.758;2023-01-19T00:05:52;13.77;;;6.85;;
75616;SDS011;64200;55.426;37.758;2023-01-19T00:10:53;18.70;;;9.07;;
75616;SDS011;64200;55.426;37.758;2023-01-19T00:15:54;11.98;;;5.53;;
75616;SDS011;64200;55.426;37.758;2023-01-19T00:20:55;10.55;;;5.20;;
75616;SDS011;64200;55.426;37.758;2023-01-19T00:25:55;14.90;;;6.47;;
75616;SDS011;64200;55.426;37.758;2023-01-19T00:30:56;13.52;;;7.75;;
75616;SDS011;64200;55.426;37.758;2023-01-19T00:35:56;14.60;;;6.57;;
75616;SDS011;64200;55.426;37.758;2023-01-19T00:40:57;7.93;;;4.30;;
75616;SDS011;64200;55.426;37.758;2023-01-19T00:45:57;11.10;;;5.83;;
75616;SDS011;64200;55.426;37.758;2023-01-19T00:50:58;16.93;;;6.40;;
75616;SDS011;64200;55.426;37.758;2023-01-19T00:55:59;13.32;;;6.10;;
75616;SDS011;64200;55.426;37.758;2023-01-19T01:00:59;11.60;;;5.37;;
75616;SDS011;64200;55.426;37.758;2023-01-19T01:06:02;15.07;;;8.15;;
75616;SDS011;64200;55.426;37.758;2023-01-19T01:11:05;16.00;;;7.53;;
75616;SDS011;64200;55.426;37.758;2023-01-19T01:16:06;15.07;;;7.65;;
75616;SDS011;64200;55.426;37.758;2023-01-19T01:21:09;12.50;;;6.35;;
75616;SDS011;64200;55.426;37.758;2023-01-19T01:26:12;9.38;;;5.50;;
75616;SDS011;64200;55.426;37.758;2023-01-19T01:31:12;11.45;;;5.80;;
75616;SDS011;64200;55.426;37.758;2023-01-19T01:36:13;13.18;;;6.43;;
75616;SDS011;64200;55.426;37.758;2023-01-19T01:41:13;17.88;;;7.75;;
75616;SDS011;64200;55.426;37.758;2023-01-19T01:46:14;21.17;;;7.40;;
75616;SDS011;64200;55.426;37.758;2023-01-19T01:51:21;16.67;;;8.98;;
75616;SDS011;64200;55.426;37.758;2023-01-19T01:56:50;17.33;;;7.32;;
75616;SDS011;64200;55.426;37.758;2023-01-19T02:01:56;13.63;;;7.53;;
75616;SDS011;64200;55.426;37.758;2023-01-19T02:07:24;14.70;;;6.38;;
75616;SDS011;64200;55.426;37.758;2023-01-19T02:12:51;12.27;;;5.85;;
75616;SDS011;64200;55.426;37.758;2023-01-19T02:18:10;17.48;;;8.05;;
75616;SDS011;64200;55.426;37.758;2023-01-19T02:23:13;20.63;;;8.30;;
75616;SDS011;64200;55.426;37.758;2023-01-19T02:28:19;16.42;;;6.35;;
75616;SDS011;64200;55.426;37.758;2023-01-19T02:33:20;12.20;;;7.10;;
75616;SDS011;64200;55.426;37.758;2023-01-19T02:38:21;13.63;;;7.03;;
75616;SDS011;64200;55.426;37.758;2023-01-19T02:43:26;12.43;;;7.53;;
75616;SDS011;64200;55.426;37.758;2023-01-19T02:48:29;13.70;;;7.15;;
75616;SDS011;64200;55.426;37.758;2023-01-19T02:53:37;15.52;;;8.38;;
75616;SDS011;64200;55.426;37.758;2023-01-19T02:58:53;14.88;;;7.90;;
75616;SDS011;64200;55.426;37.758;2023-01-19T03:09:20;11.48;;;4.55;;
75616;SDS011;64200;55.426;37.758;2023-01-19T03:14:28;10.18;;;4.22;;
75616;SDS011;64200;55.426;37.758;2023-01-19T03:19:33;14.63;;;5.88;;
75616;SDS011;64200;55.426;37.758;2023-01-19T03:24:38;12.32;;;5.45;;
75616;SDS011;64200;55.426;37.758;2023-01-19T03:29:44;10.00;;;6.50;;
75616;SDS011;64200;55.426;37.758;2023-01-19T03:34:50;12.55;;;5.80;;
75616;SDS011;64200;55.426;37.758;2023-01-19T03:39:52;17.67;;;7.72;;
75616;SDS011;64200;55.426;37.758;2023-01-19T03:44:52;10.07;;;4.87;;
75616;SDS011;64200;55.426;37.758;2023-01-19T03:49:55;12.13;;;5.95;;
75616;SDS011;64200;55.426;37.758;2023-01-19T03:54:57;15.80;;;7.07;;
75616;SDS011;64200;55.426;37.758;2023-01-19T03:59:59;13.98;;;6.68;;
75616;SDS011;64200;55.426;37.758;2023-01-19T04:05:00;13.77;;;6.60;;
75616;SDS011;64200;55.426;37.758;2023-01-19T04:10:00;11.77;;;5.67;;
75616;SDS011;64200;55.426;37.758;2023-01-19T04:15:01;8.43;;;4.13;;
75616;SDS011;64200;55.426;37.758;2023-01-19T04:20:01;15.30;;;7.60;;
75616;SDS011;64200;55.426;37.758;2023-01-19T04:25:02;18.17;;;8.10;;
75616;SDS011;64200;55.426;37.758;2023-01-19T04:30:03;15.95;;;7.07;;
75616;SDS011;64200;55.426;37.758;2023-01-19T04:35:05;13.07;;;4.63;;
75616;SDS011;64200;55.426;37.758;2023-01-19T04:40:06;8.18;;;5.20;;
75616;SDS011;64200;55.426;37.758;2023-01-19T04:45:07;10.13;;;5.57;;
75616;SDS011;64200;55.426;37.758;2023-01-19T04:50:09;9.77;;;4.45;;
75616;SDS011;64200;55.426;37.758;2023-01-19T04:55:10;10.35;;;5.53;;
75616;SDS011;64200;55.426;37.758;2023-01-19T05:00:11;9.02;;;3.72;;
75616;SDS011;64200;55.426;37.758;2023-01-19T05:05:12;10.15;;;4.43;;
75616;SDS011;64200;55.426;37.758;2023-01-19T05:10:13;11.15;;;5.28;;
75616;SDS011;64200;55.426;37.758;2023-01-19T05:15:13;6.90;;;4.07;;
75616;SDS011;64200;55.426;37.758;2023-01-19T05:20:14;6.07;;;3.95;;
75616;SDS011;64200;55.426;37.758;2023-01-19T05:25:16;8.63;;;4.60;;
75616;SDS011;64200;55.426;37.758;2023-01-19T05:30:17;15.48;;;8.10;;
75616;SDS011;64200;55.426;37.758;2023-01-19T05:35:18;7.07;;;3.97;;
75616;SDS011;64200;55.426;37.758;2023-01-19T05:40:18;11.75;;;5.53;;
75616;SDS011;64200;55.426;37.758;2023-01-19T05:45:19;8.77;;;4.50;;
75616;SDS011;64200;55.426;37.758;2023-01-19T05:50:20;14.82;;;6.07;;
75616;SDS011;64200;55.426;37.758;2023-01-19T05:55:22;8.15;;;3.97;;
75616;SDS011;64200;55.426;37.758;2023-01-19T06:00:23;11.13;;;5.25;;
75616;SDS011;64200;55.426;37.758;2023-01-19T06:05:26;16.10;;;7.28;;
75616;SDS011;64200;55.426;37.758;2023-01-19T06:10:26;14.10;;;6.47;;
75616;SDS011;64200;55.426;37.758;2023-01-19T06:15:27;20.17;;;8.07;;
75616;SDS011;64200;55.426;37.758;2023-01-19T06:20:27;6.83;;;3.77;;
75616;SDS011;64200;55.426;37.758;2023-01-19T06:25:28;7.20;;;3.08;;
75616;SDS011;64200;55.426;37.758;2023-01-19T06:30:29;9.55;;;4.78;;
75616;SDS011;64200;55.426;37.758;2023-01-19T06:35:29;10.90;;;4.82;;
75616;SDS011;64200;55.426;37.758;2023-01-19T06:40:30;15.15;;;7.38;;
75616;SDS011;64200;55.426;37.758;2023-01-19T06:45:30;11.13;;;5.97;;
75616;SDS011;64200;55.426;37.758;2023-01-19T06:50:31;11.53;;;4.27;;
75616;SDS011;64200;55.426;37.758;2023-01-19T06:55:31;9.77;;;4.20;;
75616;SDS011;64200;55.426;37.758;2023-01-19T07:00:34;13.35;;;5.00;;
75616;SDS011;64200;55.426;37.758;2023-01-19T07:05:35;9.90;;;4.28;;
75616;SDS011;64200;55.426;37.758;2023-01-19T07:10:36;15.80;;;6.15;;
75616;SDS011;64200;55.426;37.758;2023-01-19T07:15:36;7.17;;;4.27;;
75616;SDS011;64200;55.426;37.758;2023-01-19T07:20:38;10.43;;;4.88;;
75616;SDS011;64200;55.426;37.758;2023-01-19T07:25:38;9.87;;;4.83;;
75616;SDS011;64200;55.426;37.758;2023-01-19T07:30:39;7.68;;;4.57;;
75616;SDS011;64200;55.426;37.758;2023-01-19T07:35:39;14.88;;;6.57;;
75616;SDS011;64200;55.426;37.758;2023-01-19T07:40:45;8.10;;;4.57;;
75616;SDS011;64200;55.426;37.758;2023-01-19T07:45:46;11.35;;;4.72;;
75616;SDS011;64200;55.426;37.758;2023-01-19T07:50:46;16.40;;;6.60;;
75616;SDS011;64200;55.426;37.758;2023-01-19T07:55:52;13.35;;;5.90;;
75616;SDS011;64200;55.426;37.758;2023-01-19T08:00:53;17.00;;;6.70;;
75616;SDS011;64200;55.426;37.758;2023-01-19T08:05:54;12.18;;;5.63;;
75616;SDS011;64200;55.426;37.758;2023-01-19T08:10:56;9.85;;;3.88;;
75616;SDS011;64200;55.426;37.758;2023-01-19T08:15:56;11.93;;;5.77;;
75616;SDS011;64200;55.426;37.758;2023-01-19T08:20:57;19.70;;;8.75;;
75616;SDS011;64200;55.426;37.758;2023-01-19T08:25:58;11.85;;;5.32;;
75616;SDS011;64200;55.426;37.758;2023-01-19T08:30:59;13.68;;;5.72;;
75616;SDS011;64200;55.426;37.758;2023-01-19T08:35:59;14.67;;;6.73;;
75616;SDS011;64200;55.426;37.758;2023-01-19T08:41:00;10.25;;;5.22;;
75616;SDS011;64200;55.426;37.758;2023-01-19T08:46:00;14.27;;;6.77;;
75616;SDS011;64200;55.426;37.758;2023-01-19T08:51:02;21.95;;;9.35;;
75616;SDS011;64200;55.426;37.758;2023-01-19T08:56:03;21.15;;;9.48;;
75616;SDS011;64200;55.426;37.758;2023-01-19T09:01:05;3.67;;;2.33;;
75616;SDS011;64200;55.426;37.758;2023-01-19T09:06:08;13.98;;;6.38;;
75616;SDS011;64200;55.426;37.758;2023-01-19T09:11:10;20.45;;;6.32;;
75616;SDS011;64200;55.426;37.758;2023-01-19T09:16:11;20.00;;;8.18;;
75616;SDS011;64200;55.426;37.758;2023-01-19T09:21:13;13.13;;;7.15;;
75616;SDS011;64200;55.426;37.758;2023-01-19T09:26:14;18.83;;;8.00;;
75616;SDS011;64200;55.426;37.758;2023-01-19T09:31:15;28.05;;;10.65;;
75616;SDS011;64200;55.426;37.758;2023-01-19T09:36:16;10.60;;;4.50;;
75616;SDS011;64200;55.426;37.758;2023-01-19T09:41:20;22.73;;;10.30;;
75616;SDS011;64200;55.426;37.758;2023-01-19T09:46:32;19.77;;;8.88;;
75616;SDS011;64200;55.426;37.758;2023-01-19T09:51:38;12.00;;;5.47;;
75616;SDS011;64200;55.426;37.758;2023-01-19T09:56:44;11.55;;;6.60;;
75616;SDS011;64200;55.426;37.758;2023-01-19T10:06:58;20.63;;;8.05;;
75616;SDS011;64200;55.426;37.758;2023-01-19T10:23:03;19.65;;;8.30;;
75616;SDS011;64200;55.426;37.758;2023-01-19T10:28:16;13.90;;;6.03;;
75616;SDS011;64200;55.426;37.758;2023-01-19T10:33:22;7.80;;;5.25;;
75616;SDS011;64200;55.426;37.758;2023-01-19T10:38:22;8.63;;;4.68;;
75616;SDS011;64200;55.426;37.758;2023-01-19T10:48:35;26.23;;;7.55;;
75616;SDS011;64200;55.426;37.758;2023-01-19T10:53:38;15.50;;;7.00;;
75616;SDS011;64200;55.426;37.758;2023-01-19T10:58:41;14.25;;;7.03;;
75616;SDS011;64200;55.426;37.758;2023-01-19T11:03:42;24.27;;;9.60;;
75616;SDS011;64200;55.426;37.758;2023-01-19T11:08:44;20.80;;;8.95;;
75616;SDS011;64200;55.426;37.758;2023-01-19T11:14:00;24.77;;;9.20;;
75616;SDS011;64200;55.426;37.758;2023-01-19T11:19:20;22.55;;;8.70;;
75616;SDS011;64200;55.426;37.758;2023-01-19T11:29:26;33.63;;;11.88;;
75616;SDS011;64200;55.426;37.758;2023-01-19T11:34:30;33.22;;;12.07;;
75616;SDS011;64200;55.426;37.758;2023-01-19T11:39:49;21.60;;;8.73;;
75616;SDS011;64200;55.426;37.758;2023-01-19T11:50:36;12.63;;;5.57;;
75616;SDS011;64200;55.426;37.758;2023-01-19T11:55:40;22.63;;;9.13;;
75616;SDS011;64200;55.426;37.758;2023-01-19T12:05:54;14.23;;;6.03;;
75616;SDS011;64200;55.426;37.758;2023-01-19T12:10:59;23.55;;;11.27;;
75616;SDS011;64200;55.426;37.758;2023-01-19T12:16:09;31.17;;;11.35;;
75616;SDS011;64200;55.426;37.758;2023-01-19T12:21:20;11.18;;;5.70;;
75616;SDS011;64200;55.426;37.758;2023-01-19T12:26:37;22.02;;;10.30;;
75616;SDS011;64200;55.426;37.758;2023-01-19T12:42:42;21.40;;;8.85;;
75616;SDS011;64200;55.426;37.758;2023-01-19T12:47:49;14.85;;;5.82;;
75616;SDS011;64200;55.426;37.758;2023-01-19T12:52:51;22.27;;;8.60;;
75616;SDS011;64200;55.426;37.758;2023-01-19T12:57:59;15.10;;;5.88;;
75616;SDS011;64200;55.426;37.758;2023-01-19T13:08:19;18.75;;;8.27;;
75616;SDS011;64200;55.426;37.758;2023-01-19T13:13:26;34.97;;;11.93;;
75616;SDS011;64200;55.426;37.758;2023-01-19T13:18:30;18.25;;;7.00;;
75616;SDS011;64200;55.426;37.758;2023-01-19T13:34:26;16.15;;;5.57;;
75616;SDS011;64200;55.426;37.758;2023-01-19T13:39:29;18.33;;;7.03;;
75616;SDS011;64200;55.426;37.758;2023-01-19T13:44:41;18.40;;;8.35;;
75616;SDS011;64200;55.426;37.758;2023-01-19T13:49:46;23.20;;;7.97;;
75616;SDS011;64200;55.426;37.758;2023-01-19T13:54:50;25.45;;;9.68;;
75616;SDS011;64200;55.426;37.758;2023-01-19T14:10:28;17.00;;;7.35;;
75616;SDS011;64200;55.426;37.758;2023-01-19T14:15:30;20.13;;;8.13;;
75616;SDS011;64200;55.426;37.758;2023-01-19T14:20:33;16.63;;;9.32;;
75616;SDS011;64200;55.426;37.758;2023-01-19T14:25:36;15.68;;;7.07;;
75616;SDS011;64200;55.426;37.758;2023-01-19T14:30:38;18.15;;;9.02;;
75616;SDS011;64200;55.426;37.758;2023-01-19T14:35:39;10.67;;;4.63;;
75616;SDS011;64200;55.426;37.758;2023-01-19T14:40:39;18.20;;;7.60;;
75616;SDS011;64200;55.426;37.758;2023-01-19T14:45:40;19.17;;;7.77;;
75616;SDS011;64200;55.426;37.758;2023-01-19T14:50:46;13.82;;;8.02;;
75616;SDS011;64200;55.426;37.758;2023-01-19T14:55:53;16.80;;;8.05;;
75616;SDS011;64200;55.426;37.758;2023-01-19T15:00:55;22.88;;;7.47;;
75616;SDS011;64200;55.426;37.758;2023-01-19T15:05:57;18.60;;;6.45;;
75616;SDS011;64200;55.426;37.758;2023-01-19T15:11:08;22.80;;;8.75;;
75616;SDS011;64200;55.426;37.758;2023-01-19T15:16:10;12.38;;;6.43;;
75616;SDS011;64200;55.426;37.758;2023-01-19T15:21:15;8.02;;;4.43;;
75616;SDS011;64200;55.426;37.758;2023-01-19T15:26:20;19.75;;;8.77;;
75616;SDS011;64200;55.426;37.758;2023-01-19T15:31:22;7.85;;;3.42;;
75616;SDS011;64200;55.426;37.758;2023-01-19T15:36:24;10.43;;;5.38;;
75616;SDS011;64200;55.426;37.758;2023-01-19T15:41:26;18.17;;;6.57;;
75616;SDS011;64200;55.426;37.758;2023-01-19T15:46:28;17.52;;;8.02;;
75616;SDS011;64200;55.426;37.758;2023-01-19T15:51:29;15.97;;;6.73;;
75616;SDS011;64200;55.426;37.758;2023-01-19T15:56:30;11.65;;;5.55;;
75616;SDS011;64200;55.426;37.758;2023-01-19T16:01:31;10.52;;;4.47;;
75616;SDS011;64200;55.426;37.758;2023-01-19T16:06:32;14.75;;;6.93;;
75616;SDS011;64200;55.426;37.758;2023-01-19T16:11:33;22.58;;;8.82;;
75616;SDS011;64200;55.426;37.758;2023-01-19T16:16:34;27.33;;;10.27;;
75616;SDS011;64200;55.426;37.758;2023-01-19T16:21:34;12.55;;;5.45;;
75616;SDS011;64200;55.426;37.758;2023-01-19T16:26:35;16.38;;;5.75;;
75616;SDS011;64200;55.426;37.758;2023-01-19T16:31:36;18.23;;;6.77;;
75616;SDS011;64200;55.426;37.758;2023-01-19T16:36:38;26.60;;;10.00;;
75616;SDS011;64200;55.426;37.758;2023-01-19T16:41:40;21.15;;;7.45;;
75616;SDS011;64200;55.426;37.758;2023-01-19T16:46:43;11.38;;;5.85;;
75616;SDS011;64200;55.426;37.758;2023-01-19T16:51:45;15.65;;;7.15;;
75616;SDS011;64200;55.426;37.758;2023-01-19T16:56:47;11.30;;;4.00;;
75616;SDS011;64200;55.426;37.758;2023-01-19T17:01:49;31.95;;;11.90;;
75616;SDS011;64200;55.426;37.758;2023-01-19T17:06:50;31.13;;;12.40;;
75616;SDS011;64200;55.426;37.758;2023-01-19T17:11:51;10.88;;;4.93;;
75616;SDS011;64200;55.426;37.758;2023-01-19T17:16:52;29.52;;;11.15;;
75616;SDS011;64200;55.426;37.758;2023-01-19T17:21:53;19.73;;;9.63;;
75616;SDS011;64200;55.426;37.758;2023-01-19T17:26:53;20.27;;;7.83;;
75616;SDS011;64200;55.426;37.758;2023-01-19T17:31:54;17.55;;;8.73;;
75616;SDS011;64200;55.426;37.758;2023-01-19T17:36:54;12.90;;;6.30;;
75616;SDS011;64200;55.426;37.758;2023-01-19T17:42:01;37.83;;;13.43;;
75616;SDS011;64200;55.426;37.758;2023-01-19T17:47:02;22.38;;;7.28;;
75616;SDS011;64200;55.426;37.758;2023-01-19T17:52:03;31.33;;;11.33;;
75616;SDS011;64200;55.426;37.758;2023-01-19T17:57:03;34.17;;;11.80;;
75616;SDS011;64200;55.426;37.758;2023-01-19T18:02:04;45.95;;;16.42;;
75616;SDS011;64200;55.426;37.758;2023-01-19T18:07:04;34.07;;;12.87;;
75616;SDS011;64200;55.426;37.758;2023-01-19T18:12:05;42.38;;;14.00;;
75616;SDS011;64200;55.426;37.758;2023-01-19T18:17:06;15.40;;;7.93;;
75616;SDS011;64200;55.426;37.758;2023-01-19T18:22:06;42.03;;;14.75;;
75616;SDS011;64200;55.426;37.758;2023-01-19T18:27:07;37.90;;;16.15;;
75616;SDS011;64200;55.426;37.758;2023-01-19T18:32:07;21.47;;;9.50;;
75616;SDS011;64200;55.426;37.758;2023-01-19T18:37:08;31.40;;;12.30;;
75616;SDS011;64200;55.426;37.758;2023-01-19T18:42:08;35.13;;;17.70;;
75616;SDS011;64200;55.426;37.758;2023-01-19T18:47:09;19.77;;;8.60;;
75616;SDS011;64200;55.426;37.758;2023-01-19T18:52:09;37.53;;;14.33;;
75616;SDS011;64200;55.426;37.758;2023-01-19T18:57:10;39.95;;;14.90;;
75616;SDS011;64200;55.426;37.758;2023-01-19T19:02:11;16.57;;;6.63;;
75616;SDS011;64200;55.426;37.758;2023-01-19T19:07:14;23.20;;;11.25;;
75616;SDS011;64200;55.426;37.758;2023-01-19T19:12:15;28.77;;;12.20;;
75616;SDS011;64200;55.426;37.758;2023-01-19T19:17:15;32.77;;;13.27;;
75616;SDS011;64200;55.426;37.758;2023-01-19T19:22:16;28.77;;;12.37;;
75616;SDS011;64200;55.426;37.758;2023-01-19T19:27:16;29.77;;;11.07;;
75616;SDS011;64200;55.426;37.758;2023-01-19T19:32:17;22.15;;;9.57;;
75616;SDS011;64200;55.426;37.758;2023-01-19T19:37:19;24.55;;;9.23;;
75616;SDS011;64200;55.426;37.758;2023-01-19T19:42:19;43.30;;;15.17;;
75616;SDS011;64200;55.426;37.758;2023-01-19T19:47:20;33.70;;;13.33;;
75616;SDS011;64200;55.426;37.758;2023-01-19T19:52:20;24.40;;;13.25;;
75616;SDS011;64200;55.426;37.758;2023-01-19T19:57:21;22.63;;;9.60;;
75616;SDS011;64200;55.426;37.758;2023-01-19T20:02:22;18.52;;;7.32;;
75616;SDS011;64200;55.426;37.758;2023-01-19T20:07:22;33.43;;;15.90;;
75616;SDS011;64200;55.426;37.758;2023-01-19T20:12:23;26.10;;;10.77;;
75616;SDS011;64200;55.426;37.758;2023-01-19T20:17:23;33.72;;;13.70;;
75616;SDS011;64200;55.426;37.758;2023-01-19T20:22:24;15.40;;;9.13;;
75616;SDS011;64200;55.426;37.758;2023-01-19T20:27:24;34.20;;;12.57;;
75616;SDS011;64200;55.426;37.758;2023-01-19T20:32:25;36.90;;;14.63;;
75616;SDS011;64200;55.426;37.758;2023-01-19T20:37:26;43.47;;;16.42;;
75616;SDS011;64200;55.426;37.758;2023-01-19T20:42:26;40.13;;;15.67;;
75616;SDS011;64200;55.426;37.758;2023-01-19T20:47:27;18.37;;;9.07;;
75616;SDS011;64200;55.426;37.758;2023-01-19T20:52:27;20.27;;;9.47;;
75616;SDS011;64200;55.426;37.758;2023-01-19T20:57:28;26.27;;;11.35;;
75616;SDS011;64200;55.426;37.758;2023-01-19T21:02:29;27.80;;;10.85;;
75616;SDS011;64200;55.426;37.758;2023-01-19T21:07:29;40.63;;;16.10;;
75616;SDS011;64200;55.426;37.758;2023-01-19T21:12:30;39.58;;;17.50;;
75616;SDS011;64200;55.426;37.758;2023-01-19T21:17:30;29.38;;;13.20;;
75616;SDS011;64200;55.426;37.758;2023-01-19T21:22:31;24.67;;;11.63;;
75616;SDS011;64200;55.426;37.758;2023-01-19T21:27:31;31.57;;;13.93;;
75616;SDS011;64200;55.426;37.758;2023-01-19T21:32:32;20.10;;;8.95;;
75616;SDS011;64200;55.426;37.758;2023-01-19T21:37:33;24.92;;;11.52;;
75616;SDS011;64200;55.426;37.758;2023-01-19T21:42:33;29.07;;;12.87;;
75616;SDS011;64200;55.426;37.758;2023-01-19T21:47:34;45.03;;;16.85;;
75616;SDS011;64200;55.426;37.758;2023-01-19T21:52:35;40.38;;;16.17;;
75616;SDS011;64200;55.426;37.758;2023-01-19T21:57:36;26.23;;;10.10;;
75616;SDS011;64200;55.426;37.758;2023-01-19T22:02:36;35.07;;;14.77;;
75616;SDS011;64200;55.426;37.758;2023-01-19T22:07:37;33.15;;;13.38;;
75616;SDS011;64200;55.426;37.758;2023-01-19T22:12:37;27.17;;;14.47;;
75616;SDS011;64200;55.426;37.758;2023-01-19T22:17:39;24.88;;;12.40;;
75616;SDS011;64200;55.426;37.758;2023-01-19T22:22:39;27.30;;;12.43;;
75616;SDS011;64200;55.426;37.758;2023-01-19T22:27:40;20.27;;;10.07;;
75616;SDS011;64200;55.426;37.758;2023-01-19T22:32:40;31.03;;;11.83;;
75616;SDS011;64200;55.426;37.758;2023-01-19T22:37:41;21.30;;;10.60;;
75616;SDS011;64200;55.426;37.758;2023-01-19T22:42:45;24.37;;;10.97;;
75616;SDS011;64200;55.426;37.758;2023-01-19T22:47:46;36.20;;;15.65;;
75616;SDS011;64200;55.426;37.758;2023-01-19T22:52:47;28.53;;;16.50;;
75616;SDS011;64200;55.426;37.758;2023-01-19T22:57:47;21.30;;;9.80;;
75616;SDS011;64200;55.426;37.758;2023-01-19T23:02:48;26.93;;;12.23;;
75616;SDS011;64200;55.426;37.758;2023-01-19T23:07:48;21.17;;;9.63;;
75616;SDS011;64200;55.426;37.758;2023-01-19T23:12:49;22.63;;;10.30;;
75616;SDS011;64200;55.426;37.758;2023-01-19T23:17:49;25.07;;;12.70;;
75616;SDS011;64200;55.426;37.758;2023-01-19T23:22:52;23.95;;;9.73;;
75616;SDS011;64200;55.426;37.758;2023-01-19T23:27:53;22.40;;;9.63;;
75616;SDS011;64200;55.426;37.758;2023-01-19T23:32:53;18.20;;;8.70;;
75616;SDS011;64200;55.426;37.758;2023-01-19T23:37:54;29.70;;;12.63;;
75616;SDS011;64200;55.426;37.758;2023-01-19T23:42:54;29.67;;;16.35;;
75616;SDS011;64200;55.426;37.758;2023-01-19T23:47:55;22.07;;;9.83;;
75616;SDS011;64200;55.426;37.758;2023-01-19T23:52:55;23.60;;;11.32;;
75616;SDS011;64200;55.426;37.758;2023-01-19T23:57:56;17.33;;;8.67;;
